sensor_id;sensor_type;location;lat;lon;timestamp;P1;durP1;ratioP1;P2;durP2;ratioP2
7519;SDS011;3801;48.876;10.184;2023-07-31T00:01:47;4.73;;;1.87;;
7519;SDS011;3801;48.876;10.184;2023-07-31T00:06:51;4.03;;;2.07;;
7519;SDS011;3801;48.876;10.184;2023-07-31T00:11:54;4.60;;;1.93;;
7519;SDS011;3801;48.876;10.184;2023-07-31T00:16:59;5.00;;;2.20;;
7519;SDS011;3801;48.876;10.184;2023-07-31T00:22:03;2.80;;;1.80;;
7519;SDS011;3801;48.876;10.184;2023-07-31T00:27:06;3.03;;;1.70;;
7519;SDS011;3801;48.876;10.184;2023-07-31T00:32:11;2.97;;;1.70;;
7519;SDS011;3801;48.876;10.184;2023-07-31T00:37:15;4.33;;;2.00;;
7519;SDS011;3801;48.876;10.184;2023-07-31T00:42:18;2.60;;;1.77;;
7519;SDS011;3801;48.876;10.184;2023-07-31T00:47:24;3.37;;;2.03;;
7519;SDS011;3801;48.876;10.184;2023-07-31T00:52:28;4.37;;;2.00;;
7519;SDS011;3801;48.876;10.184;2023-07-31T00:57:31;3.10;;;2.00;;
7519;SDS011;3801;48.876;10.184;2023-07-31T01:02:37;3.30;;;2.03;;
7519;SDS011;3801;48.876;10.184;2023-07-31T01:07:42;3.50;;;2.40;;
7519;SDS011;3801;48.876;10.184;2023-07-31T01:12:48;3.20;;;1.73;;
7519;SDS011;3801;48.876;10.184;2023-07-31T01:17:55;6.10;;;2.27;;
7519;SDS011;3801;48.876;10.184;2023-07-31T01:23:19;3.73;;;2.20;;
7519;SDS011;3801;48.876;10.184;2023-07-31T01:28:29;5.50;;;1.90;;
7519;SDS011;3801;48.876;10.184;2023-07-31T01:33:36;7.17;;;2.13;;
7519;SDS011;3801;48.876;10.184;2023-07-31T01:38:39;9.03;;;2.17;;
7519;SDS011;3801;48.876;10.184;2023-07-31T01:43:44;2.37;;;1.97;;
7519;SDS011;3801;48.876;10.184;2023-07-31T01:48:48;4.83;;;2.07;;
7519;SDS011;3801;48.876;10.184;2023-07-31T01:53:51;4.63;;;2.00;;
7519;SDS011;3801;48.876;10.184;2023-07-31T01:58:56;3.17;;;1.80;;
7519;SDS011;3801;48.876;10.184;2023-07-31T02:04:00;2.97;;;1.90;;
7519;SDS011;3801;48.876;10.184;2023-07-31T02:09:04;2.93;;;1.73;;
7519;SDS011;3801;48.876;10.184;2023-07-31T02:14:09;5.53;;;2.00;;
7519;SDS011;3801;48.876;10.184;2023-07-31T02:19:13;4.10;;;1.80;;
7519;SDS011;3801;48.876;10.184;2023-07-31T02:24:16;4.60;;;1.80;;
7519;SDS011;3801;48.876;10.184;2023-07-31T02:29:21;2.83;;;1.60;;
7519;SDS011;3801;48.876;10.184;2023-07-31T02:34:24;6.20;;;1.97;;
7519;SDS011;3801;48.876;10.184;2023-07-31T02:39:28;4.57;;;1.97;;
7519;SDS011;3801;48.876;10.184;2023-07-31T02:44:33;3.23;;;1.90;;
7519;SDS011;3801;48.876;10.184;2023-07-31T02:49:37;5.77;;;2.00;;
7519;SDS011;3801;48.876;10.184;2023-07-31T02:54:40;5.47;;;2.10;;
7519;SDS011;3801;48.876;10.184;2023-07-31T02:59:45;5.33;;;2.03;;
7519;SDS011;3801;48.876;10.184;2023-07-31T03:04:49;2.53;;;1.70;;
7519;SDS011;3801;48.876;10.184;2023-07-31T03:09:52;2.23;;;1.70;;
7519;SDS011;3801;48.876;10.184;2023-07-31T03:14:57;4.47;;;2.30;;
7519;SDS011;3801;48.876;10.184;2023-07-31T03:20:00;4.17;;;2.10;;
7519;SDS011;3801;48.876;10.184;2023-07-31T03:25:04;4.47;;;1.80;;
7519;SDS011;3801;48.876;10.184;2023-07-31T03:30:10;2.10;;;1.80;;
7519;SDS011;3801;48.876;10.184;2023-07-31T03:35:14;2.90;;;1.80;;
7519;SDS011;3801;48.876;10.184;2023-07-31T03:40:18;2.80;;;1.83;;
7519;SDS011;3801;48.876;10.184;2023-07-31T03:45:23;6.73;;;1.83;;
7519;SDS011;3801;48.876;10.184;2023-07-31T03:50:27;4.40;;;1.90;;
7519;SDS011;3801;48.876;10.184;2023-07-31T03:55:30;3.23;;;1.73;;
7519;SDS011;3801;48.876;10.184;2023-07-31T04:00:35;4.70;;;1.70;;
7519;SDS011;3801;48.876;10.184;2023-07-31T04:05:39;5.57;;;2.33;;
7519;SDS011;3801;48.876;10.184;2023-07-31T04:10:42;6.60;;;2.63;;
7519;SDS011;3801;48.876;10.184;2023-07-31T04:15:50;5.50;;;1.93;;
7519;SDS011;3801;48.876;10.184;2023-07-31T04:20:53;4.83;;;2.00;;
7519;SDS011;3801;48.876;10.184;2023-07-31T04:25:57;2.53;;;1.90;;
7519;SDS011;3801;48.876;10.184;2023-07-31T04:31:02;9.60;;;2.80;;
7519;SDS011;3801;48.876;10.184;2023-07-31T04:36:06;3.27;;;2.10;;
7519;SDS011;3801;48.876;10.184;2023-07-31T04:41:09;4.03;;;2.00;;
7519;SDS011;3801;48.876;10.184;2023-07-31T04:46:14;4.30;;;2.10;;
7519;SDS011;3801;48.876;10.184;2023-07-31T04:51:17;4.20;;;2.13;;
7519;SDS011;3801;48.876;10.184;2023-07-31T04:56:21;6.57;;;1.80;;
7519;SDS011;3801;48.876;10.184;2023-07-31T05:01:26;5.17;;;2.00;;
7519;SDS011;3801;48.876;10.184;2023-07-31T05:06:29;3.23;;;1.93;;
7519;SDS011;3801;48.876;10.184;2023-07-31T05:11:32;5.03;;;2.20;;
7519;SDS011;3801;48.876;10.184;2023-07-31T05:16:37;3.30;;;1.67;;
7519;SDS011;3801;48.876;10.184;2023-07-31T05:21:41;4.17;;;2.27;;
7519;SDS011;3801;48.876;10.184;2023-07-31T05:26:45;2.77;;;1.90;;
7519;SDS011;3801;48.876;10.184;2023-07-31T05:31:49;3.43;;;2.07;;
7519;SDS011;3801;48.876;10.184;2023-07-31T05:36:53;5.30;;;2.00;;
7519;SDS011;3801;48.876;10.184;2023-07-31T05:41:56;2.70;;;1.90;;
7519;SDS011;3801;48.876;10.184;2023-07-31T05:47:01;2.80;;;1.80;;
7519;SDS011;3801;48.876;10.184;2023-07-31T05:52:04;4.17;;;1.93;;
7519;SDS011;3801;48.876;10.184;2023-07-31T05:57:08;2.80;;;2.00;;
7519;SDS011;3801;48.876;10.184;2023-07-31T06:02:12;5.03;;;2.27;;
7519;SDS011;3801;48.876;10.184;2023-07-31T06:07:16;4.80;;;2.07;;
7519;SDS011;3801;48.876;10.184;2023-07-31T06:12:19;4.80;;;2.00;;
7519;SDS011;3801;48.876;10.184;2023-07-31T06:17:24;3.77;;;1.90;;
7519;SDS011;3801;48.876;10.184;2023-07-31T06:22:28;4.70;;;2.20;;
7519;SDS011;3801;48.876;10.184;2023-07-31T06:27:31;4.20;;;1.80;;
7519;SDS011;3801;48.876;10.184;2023-07-31T06:32:36;3.73;;;2.40;;
7519;SDS011;3801;48.876;10.184;2023-07-31T06:37:42;4.40;;;2.13;;
7519;SDS011;3801;48.876;10.184;2023-07-31T06:42:46;4.53;;;1.77;;
7519;SDS011;3801;48.876;10.184;2023-07-31T06:47:51;4.17;;;2.00;;
7519;SDS011;3801;48.876;10.184;2023-07-31T06:52:54;5.47;;;2.07;;
7519;SDS011;3801;48.876;10.184;2023-07-31T06:57:58;2.87;;;1.90;;
7519;SDS011;3801;48.876;10.184;2023-07-31T07:03:03;3.95;;;2.03;;
7519;SDS011;3801;48.876;10.184;2023-07-31T07:08:06;4.30;;;2.17;;
7519;SDS011;3801;48.876;10.184;2023-07-31T07:13:10;3.83;;;2.10;;
7519;SDS011;3801;48.876;10.184;2023-07-31T07:18:17;2.60;;;1.80;;
7519;SDS011;3801;48.876;10.184;2023-07-31T07:23:20;5.22;;;2.63;;
7519;SDS011;3801;48.876;10.184;2023-07-31T07:28:24;4.65;;;2.45;;
7519;SDS011;3801;48.876;10.184;2023-07-31T07:33:29;3.03;;;2.10;;
7519;SDS011;3801;48.876;10.184;2023-07-31T07:38:32;3.55;;;2.05;;
7519;SDS011;3801;48.876;10.184;2023-07-31T07:43:36;5.13;;;2.20;;
7519;SDS011;3801;48.876;10.184;2023-07-31T07:48:41;3.70;;;2.30;;
7519;SDS011;3801;48.876;10.184;2023-07-31T07:53:45;5.57;;;2.17;;
7519;SDS011;3801;48.876;10.184;2023-07-31T07:58:48;4.03;;;2.05;;
7519;SDS011;3801;48.876;10.184;2023-07-31T08:03:54;4.30;;;2.30;;
7519;SDS011;3801;48.876;10.184;2023-07-31T08:08:58;3.45;;;2.08;;
7519;SDS011;3801;48.876;10.184;2023-07-31T08:14:07;5.38;;;2.42;;
7519;SDS011;3801;48.876;10.184;2023-07-31T08:19:12;5.10;;;2.63;;
7519;SDS011;3801;48.876;10.184;2023-07-31T08:24:16;7.15;;;2.28;;
7519;SDS011;3801;48.876;10.184;2023-07-31T08:29:20;4.75;;;2.47;;
7519;SDS011;3801;48.876;10.184;2023-07-31T08:34:24;4.43;;;2.33;;
7519;SDS011;3801;48.876;10.184;2023-07-31T08:39:28;5.20;;;2.70;;
7519;SDS011;3801;48.876;10.184;2023-07-31T08:44:32;6.40;;;2.63;;
7519;SDS011;3801;48.876;10.184;2023-07-31T08:49:37;11.60;;;3.47;;
7519;SDS011;3801;48.876;10.184;2023-07-31T08:54:42;4.53;;;2.55;;
7519;SDS011;3801;48.876;10.184;2023-07-31T08:59:45;6.03;;;2.42;;
7519;SDS011;3801;48.876;10.184;2023-07-31T09:04:50;5.45;;;2.55;;
7519;SDS011;3801;48.876;10.184;2023-07-31T09:09:54;3.17;;;2.35;;
7519;SDS011;3801;48.876;10.184;2023-07-31T09:14:57;5.35;;;2.20;;
7519;SDS011;3801;48.876;10.184;2023-07-31T09:20:14;4.53;;;2.67;;
7519;SDS011;3801;48.876;10.184;2023-07-31T09:25:18;5.07;;;2.63;;
7519;SDS011;3801;48.876;10.184;2023-07-31T09:30:22;4.22;;;2.20;;
7519;SDS011;3801;48.876;10.184;2023-07-31T09:35:29;4.97;;;2.40;;
7519;SDS011;3801;48.876;10.184;2023-07-31T09:40:33;5.07;;;2.88;;
7519;SDS011;3801;48.876;10.184;2023-07-31T09:45:37;6.18;;;2.70;;
7519;SDS011;3801;48.876;10.184;2023-07-31T09:50:45;4.60;;;2.33;;
7519;SDS011;3801;48.876;10.184;2023-07-31T09:55:48;2.70;;;2.25;;
7519;SDS011;3801;48.876;10.184;2023-07-31T10:00:52;5.38;;;2.28;;
7519;SDS011;3801;48.876;10.184;2023-07-31T10:05:57;4.90;;;2.47;;
7519;SDS011;3801;48.876;10.184;2023-07-31T10:11:02;6.20;;;2.90;;
7519;SDS011;3801;48.876;10.184;2023-07-31T10:16:07;5.22;;;2.35;;
7519;SDS011;3801;48.876;10.184;2023-07-31T10:21:12;6.38;;;2.65;;
7519;SDS011;3801;48.876;10.184;2023-07-31T10:26:16;4.32;;;2.33;;
7519;SDS011;3801;48.876;10.184;2023-07-31T10:31:20;3.92;;;2.60;;
7519;SDS011;3801;48.876;10.184;2023-07-31T10:36:25;6.00;;;2.70;;
7519;SDS011;3801;48.876;10.184;2023-07-31T10:41:29;2.95;;;2.30;;
7519;SDS011;3801;48.876;10.184;2023-07-31T10:46:34;4.15;;;2.25;;
7519;SDS011;3801;48.876;10.184;2023-07-31T10:51:43;6.22;;;2.75;;
7519;SDS011;3801;48.876;10.184;2023-07-31T10:56:47;4.40;;;2.55;;
7519;SDS011;3801;48.876;10.184;2023-07-31T11:01:55;4.47;;;2.50;;
7519;SDS011;3801;48.876;10.184;2023-07-31T11:07:01;4.28;;;2.50;;
7519;SDS011;3801;48.876;10.184;2023-07-31T11:12:08;3.00;;;2.22;;
7519;SDS011;3801;48.876;10.184;2023-07-31T11:17:12;3.35;;;2.35;;
7519;SDS011;3801;48.876;10.184;2023-07-31T11:22:17;3.60;;;2.38;;
7519;SDS011;3801;48.876;10.184;2023-07-31T11:27:20;3.33;;;1.95;;
7519;SDS011;3801;48.876;10.184;2023-07-31T11:32:24;5.53;;;3.13;;
7519;SDS011;3801;48.876;10.184;2023-07-31T11:37:40;3.20;;;2.25;;
7519;SDS011;3801;48.876;10.184;2023-07-31T11:42:43;4.85;;;2.83;;
7519;SDS011;3801;48.876;10.184;2023-07-31T11:47:46;3.90;;;2.28;;
7519;SDS011;3801;48.876;10.184;2023-07-31T11:52:52;3.08;;;2.15;;
7519;SDS011;3801;48.876;10.184;2023-07-31T11:57:57;4.38;;;2.33;;
7519;SDS011;3801;48.876;10.184;2023-07-31T12:03:00;4.78;;;2.53;;
7519;SDS011;3801;48.876;10.184;2023-07-31T12:08:10;4.63;;;2.90;;
7519;SDS011;3801;48.876;10.184;2023-07-31T12:13:19;6.65;;;2.65;;
7519;SDS011;3801;48.876;10.184;2023-07-31T12:18:24;3.85;;;2.00;;
7519;SDS011;3801;48.876;10.184;2023-07-31T12:23:30;5.43;;;2.90;;
7519;SDS011;3801;48.876;10.184;2023-07-31T12:28:37;5.57;;;2.78;;
7519;SDS011;3801;48.876;10.184;2023-07-31T12:33:41;5.30;;;2.95;;
7519;SDS011;3801;48.876;10.184;2023-07-31T12:38:46;4.68;;;2.70;;
7519;SDS011;3801;48.876;10.184;2023-07-31T12:43:50;5.57;;;2.42;;
7519;SDS011;3801;48.876;10.184;2023-07-31T12:48:53;3.20;;;2.38;;
7519;SDS011;3801;48.876;10.184;2023-07-31T12:53:58;4.63;;;2.90;;
7519;SDS011;3801;48.876;10.184;2023-07-31T12:59:02;5.43;;;2.50;;
7519;SDS011;3801;48.876;10.184;2023-07-31T13:04:06;4.47;;;2.55;;
7519;SDS011;3801;48.876;10.184;2023-07-31T13:09:12;7.80;;;2.72;;
7519;SDS011;3801;48.876;10.184;2023-07-31T13:14:15;4.47;;;2.47;;
7519;SDS011;3801;48.876;10.184;2023-07-31T13:19:19;2.78;;;2.45;;
7519;SDS011;3801;48.876;10.184;2023-07-31T13:24:23;5.15;;;2.80;;
7519;SDS011;3801;48.876;10.184;2023-07-31T13:29:27;2.85;;;2.35;;
7519;SDS011;3801;48.876;10.184;2023-07-31T13:34:32;4.97;;;2.72;;
7519;SDS011;3801;48.876;10.184;2023-07-31T13:39:36;5.65;;;2.80;;
7519;SDS011;3801;48.876;10.184;2023-07-31T13:44:40;3.05;;;2.20;;
7519;SDS011;3801;48.876;10.184;2023-07-31T13:49:44;4.20;;;2.90;;
7519;SDS011;3801;48.876;10.184;2023-07-31T13:54:49;3.65;;;2.60;;
7519;SDS011;3801;48.876;10.184;2023-07-31T13:59:52;4.90;;;2.70;;
7519;SDS011;3801;48.876;10.184;2023-07-31T14:04:56;4.25;;;2.67;;
7519;SDS011;3801;48.876;10.184;2023-07-31T14:10:01;4.35;;;2.85;;
7519;SDS011;3801;48.876;10.184;2023-07-31T14:15:06;8.18;;;2.83;;
7519;SDS011;3801;48.876;10.184;2023-07-31T14:20:10;3.97;;;2.47;;
7519;SDS011;3801;48.876;10.184;2023-07-31T14:25:15;6.13;;;3.17;;
7519;SDS011;3801;48.876;10.184;2023-07-31T14:30:19;5.95;;;2.80;;
7519;SDS011;3801;48.876;10.184;2023-07-31T14:35:22;9.60;;;3.08;;
7519;SDS011;3801;48.876;10.184;2023-07-31T14:40:27;3.17;;;2.40;;
7519;SDS011;3801;48.876;10.184;2023-07-31T14:45:30;5.38;;;2.90;;
7519;SDS011;3801;48.876;10.184;2023-07-31T14:50:34;4.07;;;2.83;;
7519;SDS011;3801;48.876;10.184;2023-07-31T14:55:39;3.38;;;2.40;;
7519;SDS011;3801;48.876;10.184;2023-07-31T15:00:42;4.00;;;2.95;;
7519;SDS011;3801;48.876;10.184;2023-07-31T15:05:45;3.33;;;2.55;;
7519;SDS011;3801;48.876;10.184;2023-07-31T15:10:50;6.05;;;2.75;;
7519;SDS011;3801;48.876;10.184;2023-07-31T15:15:59;4.18;;;2.72;;
7519;SDS011;3801;48.876;10.184;2023-07-31T15:21:02;3.67;;;2.47;;
7519;SDS011;3801;48.876;10.184;2023-07-31T15:26:07;3.22;;;2.80;;
7519;SDS011;3801;48.876;10.184;2023-07-31T15:31:11;3.33;;;2.58;;
7519;SDS011;3801;48.876;10.184;2023-07-31T15:36:14;6.10;;;2.80;;
7519;SDS011;3801;48.876;10.184;2023-07-31T15:41:20;4.70;;;2.92;;
7519;SDS011;3801;48.876;10.184;2023-07-31T15:46:24;6.70;;;3.20;;
7519;SDS011;3801;48.876;10.184;2023-07-31T15:51:27;4.35;;;2.95;;
7519;SDS011;3801;48.876;10.184;2023-07-31T15:56:32;6.80;;;3.33;;
7519;SDS011;3801;48.876;10.184;2023-07-31T16:01:35;4.38;;;2.83;;
7519;SDS011;3801;48.876;10.184;2023-07-31T16:06:39;5.50;;;2.90;;
7519;SDS011;3801;48.876;10.184;2023-07-31T16:11:44;3.58;;;2.75;;
7519;SDS011;3801;48.876;10.184;2023-07-31T16:16:48;4.80;;;2.65;;
7519;SDS011;3801;48.876;10.184;2023-07-31T16:21:54;4.32;;;3.00;;
7519;SDS011;3801;48.876;10.184;2023-07-31T16:26:59;3.40;;;2.80;;
7519;SDS011;3801;48.876;10.184;2023-07-31T16:32:02;3.85;;;2.70;;
7519;SDS011;3801;48.876;10.184;2023-07-31T16:37:06;4.25;;;2.90;;
7519;SDS011;3801;48.876;10.184;2023-07-31T16:42:11;6.72;;;2.83;;
7519;SDS011;3801;48.876;10.184;2023-07-31T16:47:14;4.32;;;3.25;;
7519;SDS011;3801;48.876;10.184;2023-07-31T16:52:17;4.30;;;2.90;;
7519;SDS011;3801;48.876;10.184;2023-07-31T16:57:22;4.80;;;2.83;;
7519;SDS011;3801;48.876;10.184;2023-07-31T17:02:27;4.22;;;3.05;;
7519;SDS011;3801;48.876;10.184;2023-07-31T17:07:30;3.40;;;2.65;;
7519;SDS011;3801;48.876;10.184;2023-07-31T17:12:35;3.25;;;2.67;;
7519;SDS011;3801;48.876;10.184;2023-07-31T17:17:39;3.17;;;2.80;;
7519;SDS011;3801;48.876;10.184;2023-07-31T17:22:42;5.53;;;2.75;;
7519;SDS011;3801;48.876;10.184;2023-07-31T17:27:51;4.32;;;2.83;;
7519;SDS011;3801;48.876;10.184;2023-07-31T17:32:56;6.93;;;2.67;;
7519;SDS011;3801;48.876;10.184;2023-07-31T17:38:00;4.32;;;2.70;;
7519;SDS011;3801;48.876;10.184;2023-07-31T17:43:05;5.07;;;2.95;;
7519;SDS011;3801;48.876;10.184;2023-07-31T17:48:08;6.50;;;3.00;;
7519;SDS011;3801;48.876;10.184;2023-07-31T17:53:11;4.93;;;3.15;;
7519;SDS011;3801;48.876;10.184;2023-07-31T17:58:16;4.80;;;3.13;;
7519;SDS011;3801;48.876;10.184;2023-07-31T18:03:20;3.28;;;2.40;;
7519;SDS011;3801;48.876;10.184;2023-07-31T18:08:23;3.65;;;2.58;;
7519;SDS011;3801;48.876;10.184;2023-07-31T18:13:28;5.22;;;3.10;;
7519;SDS011;3801;48.876;10.184;2023-07-31T18:18:32;3.25;;;2.70;;
7519;SDS011;3801;48.876;10.184;2023-07-31T18:23:37;3.67;;;3.00;;
7519;SDS011;3801;48.876;10.184;2023-07-31T18:28:43;8.43;;;3.20;;
7519;SDS011;3801;48.876;10.184;2023-07-31T18:33:47;4.33;;;2.90;;
7519;SDS011;3801;48.876;10.184;2023-07-31T18:38:50;5.97;;;3.17;;
7519;SDS011;3801;48.876;10.184;2023-07-31T18:43:58;3.80;;;2.57;;
7519;SDS011;3801;48.876;10.184;2023-07-31T18:49:02;4.45;;;3.00;;
7519;SDS011;3801;48.876;10.184;2023-07-31T18:54:06;4.97;;;3.00;;
7519;SDS011;3801;48.876;10.184;2023-07-31T18:59:12;3.73;;;2.90;;
7519;SDS011;3801;48.876;10.184;2023-07-31T19:04:16;5.60;;;3.53;;
7519;SDS011;3801;48.876;10.184;2023-07-31T19:09:27;4.27;;;3.20;;
7519;SDS011;3801;48.876;10.184;2023-07-31T19:14:32;4.90;;;3.03;;
7519;SDS011;3801;48.876;10.184;2023-07-31T19:19:36;5.67;;;3.13;;
7519;SDS011;3801;48.876;10.184;2023-07-31T19:24:39;5.90;;;3.53;;
7519;SDS011;3801;48.876;10.184;2023-07-31T19:29:48;7.63;;;3.77;;
7519;SDS011;3801;48.876;10.184;2023-07-31T19:34:52;6.73;;;3.27;;
7519;SDS011;3801;48.876;10.184;2023-07-31T19:39:56;5.73;;;3.00;;
7519;SDS011;3801;48.876;10.184;2023-07-31T19:45:01;3.47;;;3.00;;
7519;SDS011;3801;48.876;10.184;2023-07-31T19:50:05;6.13;;;2.83;;
7519;SDS011;3801;48.876;10.184;2023-07-31T19:55:08;5.77;;;3.37;;
7519;SDS011;3801;48.876;10.184;2023-07-31T20:00:13;7.93;;;3.70;;
7519;SDS011;3801;48.876;10.184;2023-07-31T20:05:17;5.70;;;3.53;;
7519;SDS011;3801;48.876;10.184;2023-07-31T20:10:21;4.23;;;3.30;;
7519;SDS011;3801;48.876;10.184;2023-07-31T20:15:28;5.77;;;3.40;;
7519;SDS011;3801;48.876;10.184;2023-07-31T20:20:32;6.63;;;3.27;;
7519;SDS011;3801;48.876;10.184;2023-07-31T20:25:35;5.00;;;3.40;;
7519;SDS011;3801;48.876;10.184;2023-07-31T20:30:42;6.03;;;3.20;;
7519;SDS011;3801;48.876;10.184;2023-07-31T20:35:46;4.87;;;3.67;;
7519;SDS011;3801;48.876;10.184;2023-07-31T20:40:50;5.93;;;3.37;;
7519;SDS011;3801;48.876;10.184;2023-07-31T20:45:55;5.53;;;4.07;;
7519;SDS011;3801;48.876;10.184;2023-07-31T20:50:59;4.80;;;3.40;;
7519;SDS011;3801;48.876;10.184;2023-07-31T20:56:03;6.20;;;4.17;;
7519;SDS011;3801;48.876;10.184;2023-07-31T21:01:07;9.77;;;3.80;;
7519;SDS011;3801;48.876;10.184;2023-07-31T21:06:11;5.87;;;3.80;;
7519;SDS011;3801;48.876;10.184;2023-07-31T21:11:15;5.33;;;3.33;;
7519;SDS011;3801;48.876;10.184;2023-07-31T21:16:20;9.60;;;4.30;;
7519;SDS011;3801;48.876;10.184;2023-07-31T21:21:24;7.10;;;4.13;;
7519;SDS011;3801;48.876;10.184;2023-07-31T21:26:27;8.47;;;4.07;;
7519;SDS011;3801;48.876;10.184;2023-07-31T21:31:32;5.97;;;3.57;;
7519;SDS011;3801;48.876;10.184;2023-07-31T21:36:36;5.00;;;3.67;;
7519;SDS011;3801;48.876;10.184;2023-07-31T21:41:41;4.77;;;3.63;;
7519;SDS011;3801;48.876;10.184;2023-07-31T21:46:47;5.57;;;3.57;;
7519;SDS011;3801;48.876;10.184;2023-07-31T21:51:50;5.73;;;3.30;;
7519;SDS011;3801;48.876;10.184;2023-07-31T21:56:54;5.27;;;3.33;;
7519;SDS011;3801;48.876;10.184;2023-07-31T22:01:58;5.13;;;2.83;;
7519;SDS011;3801;48.876;10.184;2023-07-31T22:07:04;9.03;;;4.27;;
7519;SDS011;3801;48.876;10.184;2023-07-31T22:12:08;4.70;;;3.30;;
7519;SDS011;3801;48.876;10.184;2023-07-31T22:17:13;5.17;;;3.10;;
7519;SDS011;3801;48.876;10.184;2023-07-31T22:22:17;3.73;;;2.93;;
7519;SDS011;3801;48.876;10.184;2023-07-31T22:27:20;4.40;;;3.00;;
7519;SDS011;3801;48.876;10.184;2023-07-31T22:32:25;4.57;;;2.93;;
7519;SDS011;3801;48.876;10.184;2023-07-31T22:37:29;4.47;;;3.27;;
7519;SDS011;3801;48.876;10.184;2023-07-31T22:42:32;5.00;;;2.70;;
7519;SDS011;3801;48.876;10.184;2023-07-31T22:47:38;4.43;;;3.33;;
7519;SDS011;3801;48.876;10.184;2023-07-31T22:52:42;4.27;;;3.30;;
7519;SDS011;3801;48.876;10.184;2023-07-31T22:57:46;5.50;;;3.80;;
7519;SDS011;3801;48.876;10.184;2023-07-31T23:02:51;6.73;;;3.23;;
7519;SDS011;3801;48.876;10.184;2023-07-31T23:07:54;7.10;;;3.57;;
7519;SDS011;3801;48.876;10.184;2023-07-31T23:12:58;6.03;;;3.70;;
7519;SDS011;3801;48.876;10.184;2023-07-31T23:18:03;6.93;;;3.80;;
7519;SDS011;3801;48.876;10.184;2023-07-31T23:23:10;5.17;;;3.07;;
7519;SDS011;3801;48.876;10.184;2023-07-31T23:28:14;6.03;;;3.43;;
7519;SDS011;3801;48.876;10.184;2023-07-31T23:33:19;4.37;;;3.10;;
7519;SDS011;3801;48.876;10.184;2023-07-31T23:38:22;4.77;;;2.60;;
7519;SDS011;3801;48.876;10.184;2023-07-31T23:43:26;5.57;;;3.37;;
7519;SDS011;3801;48.876;10.184;2023-07-31T23:48:31;4.37;;;3.30;;
7519;SDS011;3801;48.876;10.184;2023-07-31T23:53:34;5.57;;;3.20;;
7519;SDS011;3801;48.876;10.184;2023-07-31T23:58:39;5.20;;;3.43;;
